• Join FlightAware (Why Join?)
  • Login
  • US Flag 
05:43PM EDT


 

Airport Tracker/Info


-or-


 

Live Flight TrackerFlight Track Log ✈ ASQ6115 ✈ 17-Apr-2014 ✈ KORD - KDTW

Flight Track Log - Related Links

Times and Time Zones

All times are in EDT time to prevent confusion due to time zone crossing. See the ASQ6115 flight status page for this flight to view local times or setup timezone preferences in your user account.

Time Position Orientation Groundspeed Altitude Reporting Facility
EDT Latitude Longitude Course Direction KTS MPH feet Rate Location/Type
06:07PM 42.0000 -87.9833 14° North 214 246 3,800  Level Chicago TRACON
06:08PM 42.0500 -88.0333 323° Northwest 256 295 5,100 1,740 Climbing Chicago TRACON
06:09PM 42.3044 -87.7947 10° North  Level FlightAware Approximate
06:09PM 42.1364 -88.0519 351° North 274 315 7,500  Level Chicago Center
06:10PM 42.3863 -87.7667 North  Level FlightAware Approximate
06:10PM 42.2147 -88.0539 359° North 280 322 10,100  Level Chicago Center
06:11PM 42.4708 -87.7450 16° North  Level FlightAware Approximate
06:11PM 42.3053 -88.0522 North 303 349 12,800  Level Chicago Center
06:12PM 42.5667 -87.7167 14° North  Level FlightAware Approximate
06:12PM 42.3875 -88.0481 North 312 359 14,600  Level Chicago Center
06:13PM 42.4861 -88.0464 North 352 405 15,600 1,320 Climbing Chicago Center
06:14PM 42.5903 -88.0358 North 371 427 17,400 1,740 Climbing Chicago Center
06:15PM 42.7092 -87.9669 23° Northeast 418 481 19,200 1,560 Climbing Chicago Center
06:16PM 42.8022 -87.8769 35° Northeast 414 476 20,700 1,500 Climbing Chicago Center
06:17PM 42.9011 -87.7839 35° Northeast 426 490 22,300 1,080 Climbing Chicago Center
06:18PM 42.9939 -87.6753 41° Northeast 455 524 23,000 300 Climbing Chicago Center
06:19PM 43.0150 -87.4964 81° East 480 552 23,000  Level Chicago Center
06:20PM 43.0331 -87.2869 83° East 490 564 23,000  Level Chicago Center
06:21PM 43.0531 -87.1022 82° East 491 565 23,000  Level Chicago Center
06:22PM 43.0744 -86.9194 81° East 491 565 23,000  Level Chicago Center
06:23PM 43.0939 -86.7372 82° East 489 563 23,000  Level Chicago Center
06:24PM 43.1136 -86.5525 82° East 489 563 23,000  Level Chicago Center
06:25PM 43.1378 -86.3303 81° East 490 564 23,000  Level Chicago Center
06:26PM 43.1564 -86.1417 82° East 494 568 23,000  Level Chicago Center
06:27PM 43.1767 -85.9506 82° East 494 568 23,000  Level Chicago Center
06:28PM 43.1953 -85.7617 82° East 494 568 23,000  Level Chicago Center
06:29PM 43.2131 -85.5769 82° East 492 566 23,000  Level Chicago Center
06:30PM 43.2322 -85.3908 82° East 492 566 23,000  Level Chicago Center
06:31PM 43.2411 -85.2067 86° East 486 559 23,000  Level Chicago Center
06:32PM 43.2128 -85.0306 102° East 469 540 23,000  Level Chicago Center
06:34PM 43.1733 -84.8217 104° East 472 543 23,000  Level Chicago Center
06:35PM 43.1417 -84.6483 104° East 469 540 23,000  Level Chicago Center
06:36PM 43.1083 -84.4753 105° East 470 541 23,000 -660 Level Chicago Center
06:37PM 43.0753 -84.3033 105° East 470 541 21,700 -1,980 Descending Chicago Center
06:38PM 43.0431 -84.1361 105° East 457 526 18,900 -2,760 Descending Chicago Center
06:38PM 43.0206 -84.0292 106° East 433 498 17,300 -2,880 Descending Cleveland Center
06:39PM 42.9933 -83.8872 105° East 432 497 14,700 -2,880 Descending Cleveland Center
06:40PM 42.9633 -83.8350 128° Southeast 382 440 13,500 -2,160 Descending Cleveland Center
06:40PM 42.9239 -83.7875 139° Southeast 376 433 12,500 -1,320 Descending Cleveland Center
06:41PM 42.8850 -83.7661 158° South 309 356 12,200 -540 Descending Cleveland Center
06:41PM 42.8472 -83.7425 155° Southeast 310 357 12,000 -240 Descending Cleveland Center
06:42PM 42.8111 -83.7208 156° South 281 323 12,000 -540 Level Cleveland Center
06:42PM 42.7728 -83.6975 156° South 297 342 11,500 -1,020 Descending Cleveland Center
06:43PM 42.7350 -83.6756 157° South 292 336 11,000 -1,200 Descending Cleveland Center
06:43PM 42.6989 -83.6536 156° South 295 339 10,300 -1,260 Descending Cleveland Center
06:44PM 42.6592 -83.6275 154° Southeast 287 330 9,700 -1,380 Descending Cleveland Center
06:44PM 42.6325 -83.5622 119° Southeast 309 356 8,900 -1,320 Descending Cleveland Center
06:45PM 42.6169 -83.5247 119° Southeast 303 349 8,400 -1,260 Descending Cleveland Center
06:45PM 42.5936 -83.4628 117° Southeast 302 348 7,600 -1,020 Descending Cleveland Center
06:46PM 42.5806 -83.4289 118° Southeast 270 311 7,400 -780 Descending Cleveland Center
06:46PM 42.5694 -83.3714 105° East 271 312 6,800 -1,020 Descending Cleveland Center
06:47PM 42.5686 -83.3392 92° East 238 274 6,400 -1,200 Descending Cleveland Center
06:47PM 42.5708 -83.2803 87° East 245 282 5,600 -1,320 Descending Cleveland Center
06:48PM 42.5606 -83.2531 117° Southeast 228 262 5,100 -1,260 Descending Cleveland Center
06:48PM 42.5361 -83.2131 130° Southeast 228 262 4,300 -1,140 Descending Cleveland Center
06:49PM 42.5114 -83.2122 179° South 195 224 4,000 -300 Descending Cleveland Center
06:49PM 42.4803 -83.2119 180° South 207 238 4,000  Level Cleveland Center
06:50PM 42.4547 -83.2128 181° South 202 232 4,000  Level Cleveland Center
06:51PM 42.4150 -83.2272 195° South 214 246 4,000  Level Cleveland Center
06:51PM 42.4028 -83.2367 210° Southwest 202 232 4,000 -240 Level Cleveland Center
06:52PM 42.3656 -83.2631 208° Southwest 203 234 3,800 -540 Descending Cleveland Center
06:52PM 42.3517 -83.2719 205° Southwest 205 236 3,500 -1,080 Descending Cleveland Center
06:53PM 42.3169 -83.2994 210° Southwest 203 234 2,700 -1,020 Descending Cleveland Center
06:53PM 42.3050 -83.3078 207° Southwest 185 213 2,500 -780 Descending Cleveland Center
06:54PM 42.2778 -83.3275 208° Southwest 174 200 1,900 -720 Descending Cleveland Center
06:55PM 42.2472 -83.3503 209° Southwest 141 162 1,200 -420 Descending Cleveland Center
06:56PM 42.2175 -83.3739 210° Southwest 138 159 1,100 -120 Descending Cleveland Center